Dillon, CO

10:04 PM MST on November 22, 2014 (GMT -0700)
Berthoud Pass | Change Station
CLOSE
Current Station
Airport
Location: Berthoud Pass,
Elevation: 12490 ft
Nearby Weather Stations
Active Advisory: Winter Storm Warning Active Notice: Public Information Statement

Elev 12490 ft 39.79 °N, 105.76 °W | Updated 9 minutes ago

Snow
Snow
19 °F
Feels Like 0 °F
N
33
Wind Variable Wind from West
Gusts 48 mph

Today
High -- | Low -- °F
--% Chance of Precip.
Yesterday
High -- | Low -- °F
Precip. -- in
6:55 AM 4:43 PM
New Moon, 1% visible
Pressure 29.72 in
Visibility 0.5 miles
Clouds Overcast 400 ft
Windchill 0 °F
Dew Point 14 °F
Humidity 80%
Rainfall 0.00 in
Snow Depth Not available.
UV 0 out of 12
Pollen .10 out of 12
Air Quality Not available.
Flu Activity Not available.
METAR K0CO 230455Z AUTO 28029G42KT 1/2SM SN OVC004 M07/M10 A2972 RMK AO2

More Conditions Fewer Conditions

Pressure 29.72 in
Visibility 0.5 miles
Clouds Overcast 400 ft
Windchill 0 °F
Dew Point 14 °F
Humidity 80%
Rainfall 0.00 in
Snow Depth Not available.
UV 0 out of 12
Pollen .10 out of 12
Air Quality Not available.
Flu Activity Not available.
METAR K0CO 230455Z AUTO 28029G42KT 1/2SM SN OVC004 M07/M10 A2972 RMK AO2

More Conditions Fewer Conditions

Nowcast | as of 9:41 PM MST on November 22, 2014

Scattered to numerous snow showers will continue over the north central mountains through midnight. The activity will be most numerous along and near the Continental Divide and along and south of the Interstate 70 corridor. Snowfall rates will generally be less than one quarter inch per hour...with rates up to one half inch per hour with the heavier showers. West winds at 15 to 25 mph with gusts up to 45 mph will continue over the High Mountain passes. The winds will producing areas of blowing snow in windy areas.

×

10-Day Weather Forecast

Almanac

Astronomy

Nov. 22, 2014 Rise Set
Actual Time
Civil Twilight
Nautical Twilight
Astronomical Twilight
Moon
Length of Visible Light
Length of Day
Tomorrow will be .
, % of the Moon is Illuminated

Today's Extremes

State Highs State Lows

Community

WunderPhotos

Upload Photos

1,773,003 photos uploaded!

WunderBlogs® & News

Nearby

Air Quality

  Air Quality AQ Index Pollutant
Not available.

Snow Depth

Station Depth Elevation

Earthquake Activity

City Distance Mag. Time & Date
Minimum magnitude displayed is 2.5.

Coastal Water Temperatures

Place Temperature

Nearby Weather Stations